sensor_id;sensor_type;location;lat;lon;timestamp;P1;durP1;ratioP1;P2;durP2;ratioP2
48550;SDS011;34397;51.176;6.738;2023-09-19T00:02:12;7.85;;;1.33;;
48550;SDS011;34397;51.176;6.738;2023-09-19T00:04:44;10.10;;;1.55;;
48550;SDS011;34397;51.176;6.738;2023-09-19T00:07:16;4.95;;;1.20;;
48550;SDS011;34397;51.176;6.738;2023-09-19T00:09:48;6.10;;;1.85;;
48550;SDS011;34397;51.176;6.738;2023-09-19T00:12:21;7.93;;;1.50;;
48550;SDS011;34397;51.176;6.738;2023-09-19T00:14:54;6.60;;;1.48;;
48550;SDS011;34397;51.176;6.738;2023-09-19T00:17:27;4.82;;;1.40;;
48550;SDS011;34397;51.176;6.738;2023-09-19T00:20:01;7.35;;;1.60;;
48550;SDS011;34397;51.176;6.738;2023-09-19T00:22:39;6.97;;;1.42;;
48550;SDS011;34397;51.176;6.738;2023-09-19T00:25:12;7.40;;;1.45;;
48550;SDS011;34397;51.176;6.738;2023-09-19T00:27:46;5.07;;;1.23;;
48550;SDS011;34397;51.176;6.738;2023-09-19T00:30:24;6.35;;;1.55;;
48550;SDS011;34397;51.176;6.738;2023-09-19T00:32:56;7.78;;;1.63;;
48550;SDS011;34397;51.176;6.738;2023-09-19T00:35:28;9.70;;;2.42;;
48550;SDS011;34397;51.176;6.738;2023-09-19T00:37:59;6.90;;;2.03;;
48550;SDS011;34397;51.176;6.738;2023-09-19T00:40:31;8.85;;;2.15;;
48550;SDS011;34397;51.176;6.738;2023-09-19T00:43:06;6.82;;;1.38;;
48550;SDS011;34397;51.176;6.738;2023-09-19T00:45:39;9.38;;;1.70;;
48550;SDS011;34397;51.176;6.738;2023-09-19T00:48:18;8.52;;;2.58;;
48550;SDS011;34397;51.176;6.738;2023-09-19T00:50:51;6.45;;;1.55;;
48550;SDS011;34397;51.176;6.738;2023-09-19T00:53:23;6.15;;;1.23;;
48550;SDS011;34397;51.176;6.738;2023-09-19T00:55:57;5.72;;;1.52;;
48550;SDS011;34397;51.176;6.738;2023-09-19T00:58:30;10.60;;;1.52;;
48550;SDS011;34397;51.176;6.738;2023-09-19T01:01:03;7.57;;;1.50;;
48550;SDS011;34397;51.176;6.738;2023-09-19T01:03:37;7.03;;;1.63;;
48550;SDS011;34397;51.176;6.738;2023-09-19T01:06:10;8.35;;;1.52;;
48550;SDS011;34397;51.176;6.738;2023-09-19T01:08:42;6.00;;;1.48;;
48550;SDS011;34397;51.176;6.738;2023-09-19T01:11:14;5.38;;;1.33;;
48550;SDS011;34397;51.176;6.738;2023-09-19T01:13:56;7.35;;;1.52;;
48550;SDS011;34397;51.176;6.738;2023-09-19T01:16:35;6.93;;;1.73;;
48550;SDS011;34397;51.176;6.738;2023-09-19T01:19:25;10.80;;;1.83;;
48550;SDS011;34397;51.176;6.738;2023-09-19T01:22:42;7.90;;;2.45;;
48550;SDS011;34397;51.176;6.738;2023-09-19T01:28:53;6.13;;;1.30;;
48550;SDS011;34397;51.176;6.738;2023-09-19T01:31:39;10.45;;;1.63;;
48550;SDS011;34397;51.176;6.738;2023-09-19T01:34:14;6.07;;;1.50;;
48550;SDS011;34397;51.176;6.738;2023-09-19T01:36:45;9.10;;;1.65;;
48550;SDS011;34397;51.176;6.738;2023-09-19T01:39:17;6.68;;;1.52;;
48550;SDS011;34397;51.176;6.738;2023-09-19T01:41:56;7.65;;;1.55;;
48550;SDS011;34397;51.176;6.738;2023-09-19T01:44:38;6.25;;;1.80;;
48550;SDS011;34397;51.176;6.738;2023-09-19T01:47:21;6.83;;;1.47;;
48550;SDS011;34397;51.176;6.738;2023-09-19T01:49:59;5.43;;;1.33;;
48550;SDS011;34397;51.176;6.738;2023-09-19T01:52:43;4.72;;;1.50;;
48550;SDS011;34397;51.176;6.738;2023-09-19T01:55:20;5.93;;;1.67;;
48550;SDS011;34397;51.176;6.738;2023-09-19T01:57:54;8.00;;;1.33;;
48550;SDS011;34397;51.176;6.738;2023-09-19T02:00:36;7.45;;;1.52;;
48550;SDS011;34397;51.176;6.738;2023-09-19T02:03:12;7.05;;;1.42;;
48550;SDS011;34397;51.176;6.738;2023-09-19T02:05:48;5.28;;;1.27;;
48550;SDS011;34397;51.176;6.738;2023-09-19T02:08:21;6.18;;;1.20;;
48550;SDS011;34397;51.176;6.738;2023-09-19T02:10:54;6.75;;;1.58;;
48550;SDS011;34397;51.176;6.738;2023-09-19T02:13:26;5.03;;;2.00;;
48550;SDS011;34397;51.176;6.738;2023-09-19T02:15:58;6.63;;;1.38;;
48550;SDS011;34397;51.176;6.738;2023-09-19T02:18:34;5.57;;;1.88;;
48550;SDS011;34397;51.176;6.738;2023-09-19T02:21:06;10.02;;;1.67;;
48550;SDS011;34397;51.176;6.738;2023-09-19T02:23:39;7.85;;;1.60;;
48550;SDS011;34397;51.176;6.738;2023-09-19T02:26:12;8.48;;;1.85;;
48550;SDS011;34397;51.176;6.738;2023-09-19T02:28:43;7.45;;;1.73;;
48550;SDS011;34397;51.176;6.738;2023-09-19T02:33:49;12.07;;;1.95;;
48550;SDS011;34397;51.176;6.738;2023-09-19T02:36:21;7.53;;;1.65;;
48550;SDS011;34397;51.176;6.738;2023-09-19T02:41:25;8.48;;;1.70;;
48550;SDS011;34397;51.176;6.738;2023-09-19T02:43:59;11.60;;;1.70;;
48550;SDS011;34397;51.176;6.738;2023-09-19T02:46:31;5.95;;;1.60;;
48550;SDS011;34397;51.176;6.738;2023-09-19T02:49:05;6.65;;;1.50;;
48550;SDS011;34397;51.176;6.738;2023-09-19T02:51:37;4.53;;;1.17;;
48550;SDS011;34397;51.176;6.738;2023-09-19T02:54:09;4.05;;;1.30;;
48550;SDS011;34397;51.176;6.738;2023-09-19T02:59:13;6.35;;;1.55;;
48550;SDS011;34397;51.176;6.738;2023-09-19T03:01:46;9.15;;;1.60;;
48550;SDS011;34397;51.176;6.738;2023-09-19T03:04:19;9.60;;;1.40;;
48550;SDS011;34397;51.176;6.738;2023-09-19T03:06:51;6.65;;;1.90;;
48550;SDS011;34397;51.176;6.738;2023-09-19T03:09:28;6.50;;;1.25;;
48550;SDS011;34397;51.176;6.738;2023-09-19T03:12:01;5.78;;;1.50;;
48550;SDS011;34397;51.176;6.738;2023-09-19T03:14:34;7.90;;;1.75;;
48550;SDS011;34397;51.176;6.738;2023-09-19T03:17:08;9.57;;;2.08;;
48550;SDS011;34397;51.176;6.738;2023-09-19T03:19:41;6.47;;;1.30;;
48550;SDS011;34397;51.176;6.738;2023-09-19T03:22:14;5.85;;;1.27;;
48550;SDS011;34397;51.176;6.738;2023-09-19T03:24:47;7.55;;;1.23;;
48550;SDS011;34397;51.176;6.738;2023-09-19T03:27:19;10.15;;;1.90;;
48550;SDS011;34397;51.176;6.738;2023-09-19T03:32:25;6.25;;;1.40;;
48550;SDS011;34397;51.176;6.738;2023-09-19T03:34:58;6.20;;;1.30;;
48550;SDS011;34397;51.176;6.738;2023-09-19T03:37:31;9.07;;;1.60;;
48550;SDS011;34397;51.176;6.738;2023-09-19T03:40:04;7.80;;;1.55;;
48550;SDS011;34397;51.176;6.738;2023-09-19T03:42:38;4.63;;;1.75;;
48550;SDS011;34397;51.176;6.738;2023-09-19T03:45:10;9.10;;;1.80;;
48550;SDS011;34397;51.176;6.738;2023-09-19T03:47:42;8.35;;;1.85;;
48550;SDS011;34397;51.176;6.738;2023-09-19T03:50:18;7.75;;;1.85;;
48550;SDS011;34397;51.176;6.738;2023-09-19T03:52:50;6.22;;;1.63;;
48550;SDS011;34397;51.176;6.738;2023-09-19T03:55:29;9.57;;;1.90;;
48550;SDS011;34397;51.176;6.738;2023-09-19T03:58:01;5.15;;;1.42;;
48550;SDS011;34397;51.176;6.738;2023-09-19T04:00:34;6.90;;;2.08;;
48550;SDS011;34397;51.176;6.738;2023-09-19T04:03:06;6.25;;;1.50;;
48550;SDS011;34397;51.176;6.738;2023-09-19T04:05:40;6.65;;;1.63;;
48550;SDS011;34397;51.176;6.738;2023-09-19T04:08:12;6.68;;;1.98;;
48550;SDS011;34397;51.176;6.738;2023-09-19T04:10:44;9.45;;;2.05;;
48550;SDS011;34397;51.176;6.738;2023-09-19T04:13:16;7.18;;;1.70;;
48550;SDS011;34397;51.176;6.738;2023-09-19T04:15:47;3.70;;;1.35;;
48550;SDS011;34397;51.176;6.738;2023-09-19T04:18:19;8.23;;;1.52;;
48550;SDS011;34397;51.176;6.738;2023-09-19T04:20:54;6.43;;;1.58;;
48550;SDS011;34397;51.176;6.738;2023-09-19T04:23:26;10.27;;;1.83;;
48550;SDS011;34397;51.176;6.738;2023-09-19T04:25:58;7.07;;;1.60;;
48550;SDS011;34397;51.176;6.738;2023-09-19T04:28:30;8.35;;;1.80;;
48550;SDS011;34397;51.176;6.738;2023-09-19T04:31:04;9.65;;;1.90;;
48550;SDS011;34397;51.176;6.738;2023-09-19T04:33:37;9.82;;;2.00;;
48550;SDS011;34397;51.176;6.738;2023-09-19T04:36:11;5.43;;;1.45;;
48550;SDS011;34397;51.176;6.738;2023-09-19T04:38:43;11.98;;;2.17;;
48550;SDS011;34397;51.176;6.738;2023-09-19T04:41:15;9.27;;;1.50;;
48550;SDS011;34397;51.176;6.738;2023-09-19T04:43:47;11.40;;;1.95;;
48550;SDS011;34397;51.176;6.738;2023-09-19T04:46:20;8.05;;;1.88;;
48550;SDS011;34397;51.176;6.738;2023-09-19T04:48:52;8.05;;;1.58;;
48550;SDS011;34397;51.176;6.738;2023-09-19T04:51:26;5.97;;;1.40;;
48550;SDS011;34397;51.176;6.738;2023-09-19T04:54:01;6.53;;;1.50;;
48550;SDS011;34397;51.176;6.738;2023-09-19T04:59:05;6.82;;;1.55;;
48550;SDS011;34397;51.176;6.738;2023-09-19T05:01:37;10.30;;;1.70;;
48550;SDS011;34397;51.176;6.738;2023-09-19T05:04:09;5.65;;;1.60;;
48550;SDS011;34397;51.176;6.738;2023-09-19T05:06:42;7.53;;;1.60;;
48550;SDS011;34397;51.176;6.738;2023-09-19T05:09:15;7.97;;;2.38;;
48550;SDS011;34397;51.176;6.738;2023-09-19T05:11:49;10.88;;;1.92;;
48550;SDS011;34397;51.176;6.738;2023-09-19T05:14:22;9.57;;;1.85;;
48550;SDS011;34397;51.176;6.738;2023-09-19T05:16:54;9.07;;;1.58;;
48550;SDS011;34397;51.176;6.738;2023-09-19T05:19:29;8.32;;;2.13;;
48550;SDS011;34397;51.176;6.738;2023-09-19T05:22:03;6.70;;;1.48;;
48550;SDS011;34397;51.176;6.738;2023-09-19T05:24:36;6.88;;;1.95;;
48550;SDS011;34397;51.176;6.738;2023-09-19T05:29:42;10.82;;;1.60;;
48550;SDS011;34397;51.176;6.738;2023-09-19T05:34:49;11.13;;;1.92;;
48550;SDS011;34397;51.176;6.738;2023-09-19T05:37:24;8.07;;;1.90;;
48550;SDS011;34397;51.176;6.738;2023-09-19T05:39:56;7.32;;;1.40;;
48550;SDS011;34397;51.176;6.738;2023-09-19T05:42:28;10.75;;;1.95;;
48550;SDS011;34397;51.176;6.738;2023-09-19T05:45:00;6.75;;;1.38;;
48550;SDS011;34397;51.176;6.738;2023-09-19T05:47:32;8.55;;;1.70;;
48550;SDS011;34397;51.176;6.738;2023-09-19T05:50:05;7.78;;;1.40;;
48550;SDS011;34397;51.176;6.738;2023-09-19T05:52:40;6.38;;;1.70;;
48550;SDS011;34397;51.176;6.738;2023-09-19T05:55:15;8.52;;;1.75;;
48550;SDS011;34397;51.176;6.738;2023-09-19T05:57:49;9.60;;;2.00;;
48550;SDS011;34397;51.176;6.738;2023-09-19T06:00:23;6.75;;;1.45;;
48550;SDS011;34397;51.176;6.738;2023-09-19T06:03:01;8.65;;;1.60;;
48550;SDS011;34397;51.176;6.738;2023-09-19T06:05:34;5.13;;;1.50;;
48550;SDS011;34397;51.176;6.738;2023-09-19T06:08:10;9.32;;;1.95;;
48550;SDS011;34397;51.176;6.738;2023-09-19T06:10:42;8.25;;;1.38;;
48550;SDS011;34397;51.176;6.738;2023-09-19T06:13:17;10.00;;;2.30;;
48550;SDS011;34397;51.176;6.738;2023-09-19T06:15:50;8.02;;;1.50;;
48550;SDS011;34397;51.176;6.738;2023-09-19T06:18:22;7.47;;;1.98;;
48550;SDS011;34397;51.176;6.738;2023-09-19T06:20:56;7.00;;;1.55;;
48550;SDS011;34397;51.176;6.738;2023-09-19T06:23:29;10.25;;;1.90;;
48550;SDS011;34397;51.176;6.738;2023-09-19T06:26:04;5.20;;;1.33;;
48550;SDS011;34397;51.176;6.738;2023-09-19T06:28:37;15.90;;;2.35;;
48550;SDS011;34397;51.176;6.738;2023-09-19T06:31:09;8.20;;;1.40;;
48550;SDS011;34397;51.176;6.738;2023-09-19T06:33:43;9.25;;;1.98;;
48550;SDS011;34397;51.176;6.738;2023-09-19T06:36:22;6.97;;;2.08;;
48550;SDS011;34397;51.176;6.738;2023-09-19T06:38:58;7.78;;;1.52;;
48550;SDS011;34397;51.176;6.738;2023-09-19T06:41:32;7.30;;;1.50;;
48550;SDS011;34397;51.176;6.738;2023-09-19T06:44:04;8.00;;;1.77;;
48550;SDS011;34397;51.176;6.738;2023-09-19T06:46:37;8.13;;;1.65;;
48550;SDS011;34397;51.176;6.738;2023-09-19T06:49:11;8.88;;;1.83;;
48550;SDS011;34397;51.176;6.738;2023-09-19T06:51:45;8.63;;;1.73;;
48550;SDS011;34397;51.176;6.738;2023-09-19T06:54:18;7.15;;;1.65;;
48550;SDS011;34397;51.176;6.738;2023-09-19T06:56:50;7.07;;;1.73;;
48550;SDS011;34397;51.176;6.738;2023-09-19T06:59:22;10.57;;;1.63;;
48550;SDS011;34397;51.176;6.738;2023-09-19T07:01:54;4.57;;;1.70;;
48550;SDS011;34397;51.176;6.738;2023-09-19T07:04:29;6.20;;;1.52;;
48550;SDS011;34397;51.176;6.738;2023-09-19T07:07:04;11.30;;;1.73;;
48550;SDS011;34397;51.176;6.738;2023-09-19T07:09:40;9.45;;;1.80;;
48550;SDS011;34397;51.176;6.738;2023-09-19T07:12:13;9.65;;;1.90;;
48550;SDS011;34397;51.176;6.738;2023-09-19T07:14:49;9.13;;;1.77;;
48550;SDS011;34397;51.176;6.738;2023-09-19T07:17:20;6.93;;;1.40;;
48550;SDS011;34397;51.176;6.738;2023-09-19T07:19:54;10.63;;;1.98;;
48550;SDS011;34397;51.176;6.738;2023-09-19T07:22:26;8.40;;;1.60;;
48550;SDS011;34397;51.176;6.738;2023-09-19T07:27:31;9.80;;;2.10;;
48550;SDS011;34397;51.176;6.738;2023-09-19T07:30:07;8.68;;;1.50;;
48550;SDS011;34397;51.176;6.738;2023-09-19T07:32:42;5.88;;;1.42;;
48550;SDS011;34397;51.176;6.738;2023-09-19T07:35:16;11.40;;;2.00;;
48550;SDS011;34397;51.176;6.738;2023-09-19T07:37:50;7.85;;;1.80;;
48550;SDS011;34397;51.176;6.738;2023-09-19T07:40:23;9.25;;;1.77;;
48550;SDS011;34397;51.176;6.738;2023-09-19T07:42:57;8.85;;;1.83;;
48550;SDS011;34397;51.176;6.738;2023-09-19T07:45:31;9.18;;;1.92;;
48550;SDS011;34397;51.176;6.738;2023-09-19T07:48:03;6.65;;;1.20;;
48550;SDS011;34397;51.176;6.738;2023-09-19T07:50:43;11.38;;;2.28;;
48550;SDS011;34397;51.176;6.738;2023-09-19T07:53:17;10.45;;;2.03;;
48550;SDS011;34397;51.176;6.738;2023-09-19T07:55:51;11.00;;;2.08;;
48550;SDS011;34397;51.176;6.738;2023-09-19T07:58:27;9.13;;;1.35;;
48550;SDS011;34397;51.176;6.738;2023-09-19T08:01:05;11.43;;;2.03;;
48550;SDS011;34397;51.176;6.738;2023-09-19T08:03:39;7.38;;;1.33;;
48550;SDS011;34397;51.176;6.738;2023-09-19T08:06:12;8.73;;;1.60;;
48550;SDS011;34397;51.176;6.738;2023-09-19T08:08:44;8.25;;;1.58;;
48550;SDS011;34397;51.176;6.738;2023-09-19T08:11:20;7.03;;;1.95;;
48550;SDS011;34397;51.176;6.738;2023-09-19T08:13:54;9.93;;;1.73;;
48550;SDS011;34397;51.176;6.738;2023-09-19T08:16:26;11.20;;;1.80;;
48550;SDS011;34397;51.176;6.738;2023-09-19T08:18:58;9.63;;;1.85;;
48550;SDS011;34397;51.176;6.738;2023-09-19T08:21:30;9.43;;;2.03;;
48550;SDS011;34397;51.176;6.738;2023-09-19T08:24:02;8.63;;;1.73;;
48550;SDS011;34397;51.176;6.738;2023-09-19T08:26:42;4.68;;;1.25;;
48550;SDS011;34397;51.176;6.738;2023-09-19T08:29:15;7.97;;;1.60;;
48550;SDS011;34397;51.176;6.738;2023-09-19T08:31:47;16.52;;;1.90;;
48550;SDS011;34397;51.176;6.738;2023-09-19T08:34:21;5.25;;;1.63;;
48550;SDS011;34397;51.176;6.738;2023-09-19T08:36:55;9.13;;;1.80;;
48550;SDS011;34397;51.176;6.738;2023-09-19T08:39:27;10.55;;;1.90;;
48550;SDS011;34397;51.176;6.738;2023-09-19T08:42:02;9.20;;;2.05;;
48550;SDS011;34397;51.176;6.738;2023-09-19T08:44:36;11.05;;;1.90;;
48550;SDS011;34397;51.176;6.738;2023-09-19T08:47:11;10.30;;;2.10;;
48550;SDS011;34397;51.176;6.738;2023-09-19T08:49:49;7.97;;;1.40;;
48550;SDS011;34397;51.176;6.738;2023-09-19T08:52:37;6.65;;;1.52;;
48550;SDS011;34397;51.176;6.738;2023-09-19T08:55:16;9.13;;;1.92;;
48550;SDS011;34397;51.176;6.738;2023-09-19T08:57:54;9.13;;;1.95;;
48550;SDS011;34397;51.176;6.738;2023-09-19T09:00:33;8.90;;;1.85;;
48550;SDS011;34397;51.176;6.738;2023-09-19T09:03:08;7.60;;;1.85;;
48550;SDS011;34397;51.176;6.738;2023-09-19T09:05:41;8.65;;;1.95;;
48550;SDS011;34397;51.176;6.738;2023-09-19T09:08:18;8.38;;;1.52;;
48550;SDS011;34397;51.176;6.738;2023-09-19T09:10:51;4.72;;;1.73;;
48550;SDS011;34397;51.176;6.738;2023-09-19T09:15:57;5.30;;;1.40;;
48550;SDS011;34397;51.176;6.738;2023-09-19T09:18:29;8.38;;;1.63;;
48550;SDS011;34397;51.176;6.738;2023-09-19T09:21:01;7.15;;;1.52;;
48550;SDS011;34397;51.176;6.738;2023-09-19T09:23:34;7.82;;;1.77;;
48550;SDS011;34397;51.176;6.738;2023-09-19T09:26:06;4.07;;;1.45;;
48550;SDS011;34397;51.176;6.738;2023-09-19T09:28:45;10.07;;;1.65;;
48550;SDS011;34397;51.176;6.738;2023-09-19T09:31:23;6.82;;;1.60;;
48550;SDS011;34397;51.176;6.738;2023-09-19T09:33:56;8.15;;;1.83;;
48550;SDS011;34397;51.176;6.738;2023-09-19T09:36:34;6.88;;;1.48;;
48550;SDS011;34397;51.176;6.738;2023-09-19T09:39:08;8.82;;;2.00;;
48550;SDS011;34397;51.176;6.738;2023-09-19T09:41:54;11.13;;;1.98;;
48550;SDS011;34397;51.176;6.738;2023-09-19T09:44:30;5.97;;;1.30;;
48550;SDS011;34397;51.176;6.738;2023-09-19T09:47:03;6.57;;;1.60;;
48550;SDS011;34397;51.176;6.738;2023-09-19T09:49:52;5.97;;;1.75;;
48550;SDS011;34397;51.176;6.738;2023-09-19T09:52:46;7.32;;;1.50;;
48550;SDS011;34397;51.176;6.738;2023-09-19T09:55:18;5.57;;;1.50;;
48550;SDS011;34397;51.176;6.738;2023-09-19T09:57:52;4.80;;;1.48;;
48550;SDS011;34397;51.176;6.738;2023-09-19T10:00:56;5.72;;;1.23;;
48550;SDS011;34397;51.176;6.738;2023-09-19T10:03:32;7.30;;;1.65;;
48550;SDS011;34397;51.176;6.738;2023-09-19T10:06:10;6.38;;;1.35;;
48550;SDS011;34397;51.176;6.738;2023-09-19T10:09:02;4.90;;;1.65;;
48550;SDS011;34397;51.176;6.738;2023-09-19T10:11:42;6.97;;;1.90;;
48550;SDS011;34397;51.176;6.738;2023-09-19T10:14:16;4.10;;;1.77;;
48550;SDS011;34397;51.176;6.738;2023-09-19T10:16:55;4.13;;;1.60;;
48550;SDS011;34397;51.176;6.738;2023-09-19T10:19:36;8.82;;;2.17;;
48550;SDS011;34397;51.176;6.738;2023-09-19T10:22:16;4.90;;;1.70;;
48550;SDS011;34397;51.176;6.738;2023-09-19T10:24:52;6.20;;;1.58;;
48550;SDS011;34397;51.176;6.738;2023-09-19T10:27:25;8.10;;;1.75;;
48550;SDS011;34397;51.176;6.738;2023-09-19T10:29:59;4.85;;;1.40;;
48550;SDS011;34397;51.176;6.738;2023-09-19T10:32:32;5.90;;;1.75;;
48550;SDS011;34397;51.176;6.738;2023-09-19T10:35:07;6.40;;;1.80;;
48550;SDS011;34397;51.176;6.738;2023-09-19T10:37:39;4.93;;;1.55;;
48550;SDS011;34397;51.176;6.738;2023-09-19T10:40:14;5.60;;;1.88;;
48550;SDS011;34397;51.176;6.738;2023-09-19T10:42:48;5.07;;;1.27;;
48550;SDS011;34397;51.176;6.738;2023-09-19T10:45:21;4.75;;;1.42;;
48550;SDS011;34397;51.176;6.738;2023-09-19T10:47:56;5.95;;;1.70;;
48550;SDS011;34397;51.176;6.738;2023-09-19T10:50:29;4.32;;;1.27;;
48550;SDS011;34397;51.176;6.738;2023-09-19T10:53:18;5.60;;;1.90;;
48550;SDS011;34397;51.176;6.738;2023-09-19T10:55:53;5.53;;;1.60;;
48550;SDS011;34397;51.176;6.738;2023-09-19T10:58:29;3.97;;;1.70;;
48550;SDS011;34397;51.176;6.738;2023-09-19T11:01:04;4.30;;;1.42;;
48550;SDS011;34397;51.176;6.738;2023-09-19T11:03:43;4.55;;;1.42;;
48550;SDS011;34397;51.176;6.738;2023-09-19T11:06:19;4.10;;;1.67;;
48550;SDS011;34397;51.176;6.738;2023-09-19T11:08:56;3.95;;;1.80;;
48550;SDS011;34397;51.176;6.738;2023-09-19T11:11:46;5.03;;;1.73;;
48550;SDS011;34397;51.176;6.738;2023-09-19T11:14:30;4.57;;;1.67;;
48550;SDS011;34397;51.176;6.738;2023-09-19T11:20:21;6.85;;;1.70;;
48550;SDS011;34397;51.176;6.738;2023-09-19T11:23:16;2.92;;;1.58;;
48550;SDS011;34397;51.176;6.738;2023-09-19T11:25:53;3.90;;;1.70;;
48550;SDS011;34397;51.176;6.738;2023-09-19T11:28:28;4.63;;;1.60;;
48550;SDS011;34397;51.176;6.738;2023-09-19T11:40:45;7.72;;;1.73;;
48550;SDS011;34397;51.176;6.738;2023-09-19T11:43:27;6.55;;;1.65;;
48550;SDS011;34397;51.176;6.738;2023-09-19T11:46:07;4.80;;;1.67;;
48550;SDS011;34397;51.176;6.738;2023-09-19T11:48:39;5.63;;;1.80;;
48550;SDS011;34397;51.176;6.738;2023-09-19T11:51:14;6.72;;;1.70;;
48550;SDS011;34397;51.176;6.738;2023-09-19T11:53:57;4.65;;;1.63;;
48550;SDS011;34397;51.176;6.738;2023-09-19T11:56:30;4.10;;;1.67;;
48550;SDS011;34397;51.176;6.738;2023-09-19T11:59:02;5.00;;;1.52;;
48550;SDS011;34397;51.176;6.738;2023-09-19T12:01:36;3.83;;;1.33;;
48550;SDS011;34397;51.176;6.738;2023-09-19T12:04:15;5.85;;;1.67;;
48550;SDS011;34397;51.176;6.738;2023-09-19T12:06:55;4.65;;;1.55;;
48550;SDS011;34397;51.176;6.738;2023-09-19T12:09:29;4.72;;;1.50;;
48550;SDS011;34397;51.176;6.738;2023-09-19T12:12:01;5.05;;;1.63;;
48550;SDS011;34397;51.176;6.738;2023-09-19T12:14:33;4.07;;;1.60;;
48550;SDS011;34397;51.176;6.738;2023-09-19T12:17:05;4.57;;;1.63;;
48550;SDS011;34397;51.176;6.738;2023-09-19T12:19:37;5.78;;;1.85;;
48550;SDS011;34397;51.176;6.738;2023-09-19T12:24:42;3.88;;;1.40;;
48550;SDS011;34397;51.176;6.738;2023-09-19T12:27:15;5.05;;;1.77;;
48550;SDS011;34397;51.176;6.738;2023-09-19T12:29:47;4.47;;;1.50;;
48550;SDS011;34397;51.176;6.738;2023-09-19T12:32:33;4.28;;;1.40;;
48550;SDS011;34397;51.176;6.738;2023-09-19T12:35:06;3.78;;;1.40;;
48550;SDS011;34397;51.176;6.738;2023-09-19T12:37:42;4.63;;;1.60;;
48550;SDS011;34397;51.176;6.738;2023-09-19T12:40:20;3.70;;;1.60;;
48550;SDS011;34397;51.176;6.738;2023-09-19T12:42:57;6.78;;;1.52;;
48550;SDS011;34397;51.176;6.738;2023-09-19T12:45:32;3.75;;;1.55;;
48550;SDS011;34397;51.176;6.738;2023-09-19T12:48:23;3.42;;;1.13;;
48550;SDS011;34397;51.176;6.738;2023-09-19T12:51:02;3.67;;;1.45;;
48550;SDS011;34397;51.176;6.738;2023-09-19T12:53:36;3.70;;;1.35;;
48550;SDS011;34397;51.176;6.738;2023-09-19T12:56:13;4.70;;;1.40;;
48550;SDS011;34397;51.176;6.738;2023-09-19T12:58:48;4.07;;;1.48;;
48550;SDS011;34397;51.176;6.738;2023-09-19T13:01:24;3.92;;;1.30;;
48550;SDS011;34397;51.176;6.738;2023-09-19T13:04:10;3.17;;;1.20;;
48550;SDS011;34397;51.176;6.738;2023-09-19T13:06:48;5.25;;;1.63;;
48550;SDS011;34397;51.176;6.738;2023-09-19T13:09:24;4.57;;;1.10;;
48550;SDS011;34397;51.176;6.738;2023-09-19T13:12:05;5.03;;;1.40;;
48550;SDS011;34397;51.176;6.738;2023-09-19T13:15:07;1.98;;;1.10;;
48550;SDS011;34397;51.176;6.738;2023-09-19T13:17:43;4.13;;;1.33;;
48550;SDS011;34397;51.176;6.738;2023-09-19T13:20:22;3.65;;;1.42;;
48550;SDS011;34397;51.176;6.738;2023-09-19T13:22:58;2.55;;;0.75;;
48550;SDS011;34397;51.176;6.738;2023-09-19T13:25:38;2.78;;;1.08;;
48550;SDS011;34397;51.176;6.738;2023-09-19T13:28:11;2.30;;;0.88;;
48550;SDS011;34397;51.176;6.738;2023-09-19T13:30:43;3.88;;;1.15;;
48550;SDS011;34397;51.176;6.738;2023-09-19T13:33:16;2.15;;;0.85;;
48550;SDS011;34397;51.176;6.738;2023-09-19T13:35:51;2.28;;;0.90;;
48550;SDS011;34397;51.176;6.738;2023-09-19T13:38:23;3.17;;;1.20;;
48550;SDS011;34397;51.176;6.738;2023-09-19T13:43:29;3.38;;;0.90;;
48550;SDS011;34397;51.176;6.738;2023-09-19T13:46:00;2.17;;;0.88;;
48550;SDS011;34397;51.176;6.738;2023-09-19T13:48:32;3.75;;;0.90;;
48550;SDS011;34397;51.176;6.738;2023-09-19T13:51:05;3.42;;;1.08;;
48550;SDS011;34397;51.176;6.738;2023-09-19T13:53:37;3.75;;;0.82;;
48550;SDS011;34397;51.176;6.738;2023-09-19T13:56:09;3.78;;;0.77;;
48550;SDS011;34397;51.176;6.738;2023-09-19T14:01:14;1.42;;;0.75;;
48550;SDS011;34397;51.176;6.738;2023-09-19T14:03:46;4.05;;;1.08;;
48550;SDS011;34397;51.176;6.738;2023-09-19T14:06:21;2.15;;;0.80;;
48550;SDS011;34397;51.176;6.738;2023-09-19T14:08:52;2.17;;;0.80;;
48550;SDS011;34397;51.176;6.738;2023-09-19T14:11:25;3.83;;;1.00;;
48550;SDS011;34397;51.176;6.738;2023-09-19T14:13:58;3.75;;;0.90;;
48550;SDS011;34397;51.176;6.738;2023-09-19T14:16:31;4.47;;;0.90;;
48550;SDS011;34397;51.176;6.738;2023-09-19T14:19:03;2.17;;;0.70;;
48550;SDS011;34397;51.176;6.738;2023-09-19T14:21:35;4.15;;;0.90;;
48550;SDS011;34397;51.176;6.738;2023-09-19T14:24:09;1.27;;;0.63;;
48550;SDS011;34397;51.176;6.738;2023-09-19T14:26:42;1.38;;;0.60;;
48550;SDS011;34397;51.176;6.738;2023-09-19T14:29:15;2.30;;;0.80;;
48550;SDS011;34397;51.176;6.738;2023-09-19T14:31:47;2.53;;;0.73;;
48550;SDS011;34397;51.176;6.738;2023-09-19T14:36:51;2.28;;;0.75;;
48550;SDS011;34397;51.176;6.738;2023-09-19T14:39:24;3.40;;;0.80;;
48550;SDS011;34397;51.176;6.738;2023-09-19T14:41:57;2.47;;;0.90;;
48550;SDS011;34397;51.176;6.738;2023-09-19T14:44:30;5.68;;;0.82;;
48550;SDS011;34397;51.176;6.738;2023-09-19T14:47:02;1.95;;;0.70;;
48550;SDS011;34397;51.176;6.738;2023-09-19T14:49:35;2.90;;;0.90;;
48550;SDS011;34397;51.176;6.738;2023-09-19T14:52:09;3.47;;;0.73;;
48550;SDS011;34397;51.176;6.738;2023-09-19T14:54:45;3.67;;;0.70;;
48550;SDS011;34397;51.176;6.738;2023-09-19T14:57:17;3.85;;;0.88;;
48550;SDS011;34397;51.176;6.738;2023-09-19T14:59:50;5.38;;;0.60;;
48550;SDS011;34397;51.176;6.738;2023-09-19T15:02:22;2.97;;;0.63;;
48550;SDS011;34397;51.176;6.738;2023-09-19T15:04:54;2.63;;;0.60;;
48550;SDS011;34397;51.176;6.738;2023-09-19T15:07:26;2.13;;;0.68;;
48550;SDS011;34397;51.176;6.738;2023-09-19T15:09:59;4.78;;;0.85;;
48550;SDS011;34397;51.176;6.738;2023-09-19T15:12:30;2.72;;;1.10;;
48550;SDS011;34397;51.176;6.738;2023-09-19T15:15:05;3.70;;;0.63;;
48550;SDS011;34397;51.176;6.738;2023-09-19T15:17:38;4.72;;;1.23;;
48550;SDS011;34397;51.176;6.738;2023-09-19T15:20:14;2.55;;;0.50;;
48550;SDS011;34397;51.176;6.738;2023-09-19T15:22:47;3.42;;;0.55;;
48550;SDS011;34397;51.176;6.738;2023-09-19T15:25:21;1.95;;;0.50;;
48550;SDS011;34397;51.176;6.738;2023-09-19T15:30:26;5.33;;;1.43;;
48550;SDS011;34397;51.176;6.738;2023-09-19T15:32:58;1.20;;;0.70;;
48550;SDS011;34397;51.176;6.738;2023-09-19T15:35:30;2.05;;;0.57;;
48550;SDS011;34397;51.176;6.738;2023-09-19T15:38:02;4.38;;;0.60;;
48550;SDS011;34397;51.176;6.738;2023-09-19T15:40:34;2.25;;;0.80;;
48550;SDS011;34397;51.176;6.738;2023-09-19T15:43:06;2.67;;;0.65;;
48550;SDS011;34397;51.176;6.738;2023-09-19T15:45:39;1.85;;;0.55;;
48550;SDS011;34397;51.176;6.738;2023-09-19T15:48:11;2.75;;;0.57;;
48550;SDS011;34397;51.176;6.738;2023-09-19T15:50:43;2.25;;;0.80;;
48550;SDS011;34397;51.176;6.738;2023-09-19T15:53:15;3.25;;;0.60;;
48550;SDS011;34397;51.176;6.738;2023-09-19T15:55:47;2.13;;;0.75;;
48550;SDS011;34397;51.176;6.738;2023-09-19T15:58:19;3.15;;;0.70;;
48550;SDS011;34397;51.176;6.738;2023-09-19T16:00:53;1.30;;;0.60;;
48550;SDS011;34397;51.176;6.738;2023-09-19T16:03:26;3.05;;;0.80;;
48550;SDS011;34397;51.176;6.738;2023-09-19T16:05:58;4.40;;;0.80;;
48550;SDS011;34397;51.176;6.738;2023-09-19T16:08:29;2.50;;;0.88;;
48550;SDS011;34397;51.176;6.738;2023-09-19T16:11:01;2.25;;;0.70;;
48550;SDS011;34397;51.176;6.738;2023-09-19T16:16:07;5.07;;;0.60;;
48550;SDS011;34397;51.176;6.738;2023-09-19T16:18:44;2.40;;;0.60;;
48550;SDS011;34397;51.176;6.738;2023-09-19T16:21:18;2.70;;;0.70;;
48550;SDS011;34397;51.176;6.738;2023-09-19T16:23:50;4.95;;;0.93;;
48550;SDS011;34397;51.176;6.738;2023-09-19T16:26:24;3.05;;;0.77;;